Time;durP1;ratioP1;P1;durP2;ratioP2;P2;SDS_P1;SDS_P2;PMS_P1;PMS_P2;Temp;Humidity;BMP_temperature;BMP_pressure;BME280_temperature;BME280_humidity;BME280_pressure;Samples;Min_cycle;Max_cycle;Signal;HPM_P1;HPM_P2
2022/11/16 00:02:12;;;;;;;15.00;10.65;;;;;;;6.91;71.98;99698.47;1668067;84;21594;-74
2022/11/16 00:04:38;;;;;;;15.58;10.82;;;;;;;6.92;71.95;99691.78;1660699;84;21028;-75
2022/11/16 00:07:05;;;;;;;17.40;11.28;;;;;;;6.93;71.87;99689.99;1656266;84;22293;-75
2022/11/16 00:09:32;;;;;;;15.28;11.80;;;;;;;6.94;71.85;99691.66;1674899;83;20961;-74
2022/11/16 00:12:03;;;;;;;14.90;12.28;;;;;;;6.95;71.78;99685.45;1665644;84;22665;-74
2022/11/16 00:14:32;;;;;;;15.88;12.65;;;;;;;6.94;71.72;99686.41;1667059;84;21106;-74
2022/11/16 00:17:00;;;;;;;18.15;13.30;;;;;;;6.95;71.67;99689.39;1673906;84;20984;-74
2022/11/16 00:19:28;;;;;;;20.52;15.32;;;;;;;6.94;71.65;99680.69;1674610;84;21252;-74
2022/11/16 00:21:56;;;;;;;19.17;15.18;;;;;;;6.95;71.57;99678.45;1680463;84;21001;-74
2022/11/16 00:24:23;;;;;;;20.23;15.28;;;;;;;6.95;71.54;99676.27;1686182;84;21959;-74
2022/11/16 00:26:51;;;;;;;21.35;15.48;;;;;;;6.96;71.49;99674.03;1692346;84;20956;-74
2022/11/16 00:29:21;;;;;;;22.15;16.77;;;;;;;6.98;71.48;99677.38;1670273;84;21094;-73
2022/11/16 00:31:49;;;;;;;21.05;15.68;;;;;;;6.99;71.39;99669.38;1669129;84;21630;-74
2022/11/16 00:34:15;;;;;;;20.37;16.40;;;;;;;7.02;71.38;99666.51;1661751;84;21032;-74
2022/11/16 00:36:42;;;;;;;20.62;16.12;;;;;;;7.02;71.32;99660.42;1676191;83;22617;-74
2022/11/16 00:39:14;;;;;;;23.20;18.27;;;;;;;7.04;71.29;99665.08;1675146;83;21004;-74
2022/11/16 00:41:41;;;;;;;23.70;17.85;;;;;;;7.04;71.21;99659.82;1675817;83;20965;-74
2022/11/16 00:44:09;;;;;;;19.62;16.37;;;;;;;7.05;71.18;99656.27;1676039;83;21017;-74
2022/11/16 00:46:37;;;;;;;20.68;16.50;;;;;;;7.06;71.15;99651.37;1688663;83;21582;-74
2022/11/16 00:49:04;;;;;;;22.15;16.95;;;;;;;7.06;71.12;99648.27;1693369;83;21895;-74
2022/11/16 00:51:32;;;;;;;23.27;17.80;;;;;;;7.07;71.09;99650.42;1680868;83;21018;-74
2022/11/16 00:53:59;;;;;;;25.72;18.52;;;;;;;7.06;71.03;99649.59;1677975;83;20985;-74
2022/11/16 00:56:26;;;;;;;23.00;17.48;;;;;;;7.05;71.04;99653.17;1680931;83;21037;-74
2022/11/16 00:58:54;;;;;;;23.05;18.25;;;;;;;7.05;71.01;99652.33;1676681;83;21193;-76
2022/11/16 01:01:21;;;;;;;21.70;17.52;;;;;;;7.06;71.02;99655.31;1672289;83;21938;-76
2022/11/16 01:03:50;;;;;;;23.07;17.42;;;;;;;7.07;71.03;99653.88;1674775;83;21028;-76
2022/11/16 01:06:17;;;;;;;21.42;17.65;;;;;;;7.06;71.04;99644.33;1695631;83;20981;-76
2022/11/16 01:08:44;;;;;;;24.15;18.00;;;;;;;7.08;71.04;99645.05;1680008;83;21578;-77
2022/11/16 01:14:02;;;;;;;22.17;17.00;;;;;;;7.12;71.00;99640.38;1695646;84;21851;-76
2022/11/16 01:16:29;;;;;;;21.90;16.48;;;;;;;7.14;70.95;99633.22;1677195;83;21083;-75
2022/11/16 01:18:55;;;;;;;20.92;16.40;;;;;;;7.13;70.88;99631.06;1685711;83;20957;-77
2022/11/16 01:21:23;;;;;;;21.70;17.02;;;;;;;7.12;70.87;99625.94;1685928;82;21151;-74
2022/11/16 01:23:50;;;;;;;22.45;17.32;;;;;;;7.11;70.84;99625.59;1703119;81;20973;-75
2022/11/16 01:26:18;;;;;;;23.77;17.00;;;;;;;7.11;70.86;99623.79;1695567;83;21971;-75
2022/11/16 01:28:45;;;;;;;22.05;17.73;;;;;;;7.13;70.83;99621.05;1690635;83;21004;-74
2022/11/16 01:31:13;;;;;;;22.42;18.07;;;;;;;7.12;70.80;99614.13;1683005;83;21351;-75
2022/11/16 01:33:40;;;;;;;21.97;16.97;;;;;;;7.10;70.80;99614.25;1696838;83;21380;-74
2022/11/16 01:36:13;;;;;;;23.40;17.98;;;;;;;7.12;70.82;99619.37;1669370;82;21013;-74
2022/11/16 01:38:44;;;;;;;21.35;17.67;;;;;;;7.11;70.77;99612.45;1676808;84;21908;-74
2022/11/16 01:41:21;;;;;;;21.82;17.48;;;;;;;7.10;70.85;99614.72;1678392;84;20983;-74
2022/11/16 01:43:57;;;;;;;23.92;17.02;;;;;;;7.12;70.88;99611.50;1670194;84;21039;-75
2022/11/16 01:46:25;;;;;;;22.82;18.20;;;;;;;7.13;70.87;99610.54;1675609;84;21084;-75
2022/11/16 01:49:05;;;;;;;23.32;17.95;;;;;;;7.11;70.88;99605.89;1669870;84;21489;-75
2022/11/16 01:51:32;;;;;;;23.00;17.23;;;;;;;7.11;70.87;99604.09;1674044;84;22471;-74
2022/11/16 01:54:01;;;;;;;24.00;18.60;;;;;;;7.09;70.82;99600.77;1678082;84;21068;-75
2022/11/16 01:56:30;;;;;;;22.40;17.75;;;;;;;7.07;70.80;99600.53;1678575;84;21064;-75
2022/11/16 01:59:05;;;;;;;22.67;17.98;;;;;;;7.07;70.85;99597.42;1669433;84;21076;-75
2022/11/16 02:01:32;;;;;;;25.27;18.90;;;;;;;7.10;70.83;99592.41;1670245;84;20961;-75
2022/11/16 02:03:59;;;;;;;21.93;17.95;;;;;;;7.10;70.87;99586.67;1669658;84;21948;-75
2022/11/16 02:06:35;;;;;;;23.57;17.37;;;;;;;7.10;70.92;99594.55;1659784;84;21559;-75
2022/11/16 02:09:52;;;;;;;21.37;17.70;;;;;;;7.11;70.94;99596.70;1669948;84;21448;-75
2022/11/16 02:12:40;;;;;;;21.65;17.87;;;;;;;7.11;71.00;99584.88;1676406;83;20994;-74
2022/11/16 02:15:18;;;;;;;25.57;18.15;;;;;;;7.10;71.02;99584.53;1669061;84;21030;-74
2022/11/16 02:18:25;;;;;;;22.77;18.42;;;;;;;7.07;71.09;99588.71;1664384;84;21001;-74
2022/11/16 02:21:24;;;;;;;23.47;18.40;;;;;;;7.06;71.20;99579.17;1670956;84;21397;-74
2022/11/16 02:24:25;;;;;;;22.48;17.75;;;;;;;7.06;71.26;99580.00;1666973;84;21005;-74
2022/11/16 02:27:03;;;;;;;23.67;17.65;;;;;;;7.04;71.37;99584.52;1657310;84;21003;-74
2022/11/16 02:29:43;;;;;;;21.85;17.05;;;;;;;7.04;71.43;99587.14;1693718;84;21071;-73
2022/11/16 02:32:44;;;;;;;24.67;17.52;;;;;;;7.03;71.46;99584.16;1682275;84;21840;-75
2022/11/16 02:35:18;;;;;;;23.25;16.97;;;;;;;7.01;71.53;99577.36;1660113;84;21083;-74
2022/11/16 02:37:56;;;;;;;22.40;17.02;;;;;;;6.99;71.52;99581.90;1638414;86;21120;-74
2022/11/16 02:40:24;;;;;;;22.75;17.77;;;;;;;6.97;71.63;99584.65;1621092;86;20986;-74
2022/11/16 02:42:55;;;;;;;22.00;17.98;;;;;;;6.96;71.68;99578.21;1622065;86;21034;-74
2022/11/16 02:45:24;;;;;;;21.02;16.27;;;;;;;6.96;71.79;99577.73;1603898;86;21963;-74
2022/11/16 02:47:53;;;;;;;22.37;17.07;;;;;;;6.96;71.84;99571.64;1637550;86;21016;-74
2022/11/16 02:50:22;;;;;;;19.52;16.90;;;;;;;6.96;71.91;99569.85;1631966;85;21477;-75
2022/11/16 02:52:49;;;;;;;23.05;17.67;;;;;;;6.96;72.00;99559.83;1631357;86;20958;-74
2022/11/16 02:55:16;;;;;;;22.07;16.90;;;;;;;6.95;72.02;99559.44;1636181;86;21080;-74
2022/11/16 02:57:57;;;;;;;19.92;16.82;;;;;;;6.94;72.04;99566.97;1641515;86;21988;-74
2022/11/16 03:00:48;;;;;;;21.15;16.17;;;;;;;6.93;72.06;99560.05;1631756;86;21522;-74
2022/11/16 03:03:27;;;;;;;19.85;15.83;;;;;;;6.92;72.13;99553.96;1630429;86;21527;-74
2022/11/16 03:06:11;;;;;;;22.30;16.85;;;;;;;6.91;72.21;99554.09;1626917;86;20997;-74
2022/11/16 03:08:48;;;;;;;22.95;16.25;;;;;;;6.90;72.24;99553.25;1620029;86;21042;-74
2022/11/16 03:14:10;;;;;;;21.12;17.62;;;;;;;6.87;72.25;99543.83;1619897;86;21368;-74
2022/11/16 03:16:45;;;;;;;23.47;18.23;;;;;;;6.84;72.31;99541.42;1621005;86;21068;-74
2022/11/16 03:19:14;;;;;;;29.50;18.85;;;;;;;6.81;72.36;99544.30;1633457;86;20973;-74
2022/11/16 03:21:53;;;;;;;31.02;22.02;;;;;;;6.80;72.39;99536.06;1642133;86;20981;-74
2022/11/16 03:24:19;;;;;;;38.02;25.50;;;;;;;6.79;72.42;99534.88;1632661;86;21788;-74
2022/11/16 03:26:58;;;;;;;33.85;24.35;;;;;;;6.82;72.50;99538.56;1628527;87;21037;-74
2022/11/16 03:29:47;;;;;;;30.40;21.95;;;;;;;6.83;72.53;99538.92;1621627;86;21128;-75
2022/11/16 03:32:22;;;;;;;25.70;19.90;;;;;;;6.83;72.54;99535.81;1623879;86;21073;-74
2022/11/16 03:35:04;;;;;;;23.45;18.60;;;;;;;6.84;72.54;99527.47;1632483;85;21035;-74
2022/11/16 03:37:31;;;;;;;29.07;20.50;;;;;;;6.87;72.53;99524.14;1646200;85;21563;-74
2022/11/16 03:39:59;;;;;;;26.35;22.27;;;;;;;6.88;72.43;99527.61;1668136;85;21534;-74
2022/11/16 03:42:28;;;;;;;27.82;21.52;;;;;;;6.88;72.41;99524.98;1680580;83;21051;-74
2022/11/16 03:44:56;;;;;;;27.98;21.75;;;;;;;6.89;72.40;99522.23;1673862;83;21059;-74
2022/11/16 03:47:24;;;;;;;27.55;21.37;;;;;;;6.89;72.39;99516.98;1646143;83;21601;-74
2022/11/16 03:49:51;;;;;;;26.97;21.40;;;;;;;6.90;72.40;99515.19;1707506;83;21926;-74
2022/11/16 03:52:19;;;;;;;30.23;22.42;;;;;;;6.91;72.36;99506.36;1677175;83;21004;-73
2022/11/16 03:54:46;;;;;;;30.90;23.83;;;;;;;6.92;72.31;99509.33;1676764;83;21127;-74
2022/11/16 03:57:17;;;;;;;31.62;22.25;;;;;;;6.92;72.26;99508.50;1686989;83;21032;-74
2022/11/16 03:59:46;;;;;;;30.02;21.65;;;;;;;6.90;72.31;99509.94;1681750;83;21016;-74
2022/11/16 04:02:13;;;;;;;27.60;21.25;;;;;;;6.89;72.41;99506.96;1696314;83;21789;-74
2022/11/16 04:24:17;;;;;;;31.37;23.92;;;;;;;6.83;72.82;99503.01;1682193;83;26882;-75
2022/11/16 04:29:32;;;;;;;34.43;26.23;;;;;;;6.81;72.81;99489.66;1681968;83;21962;-75
2022/11/16 04:37:47;;;;;;;40.17;28.75;;;;;;;6.78;72.94;99488.59;1689545;83;21507;-74
2022/11/16 04:40:15;;;;;;;45.80;31.45;;;;;;;6.77;72.98;99486.45;1677635;83;21039;-75
2022/11/16 04:42:42;;;;;;;44.93;31.90;;;;;;;6.75;73.02;99488.33;1681409;83;21795;-75
2022/11/16 04:47:54;;;;;;;39.92;28.90;;;;;;;6.74;73.05;99478.78;1693351;83;21418;-75
2022/11/16 04:50:24;;;;;;;39.35;28.83;;;;;;;6.73;73.10;99483.68;1666634;83;21028;-75
2022/11/16 04:52:51;;;;;;;37.35;26.87;;;;;;;6.73;73.17;99488.93;1678104;83;21017;-74
2022/11/16 04:55:18;;;;;;;36.50;27.85;;;;;;;6.72;73.24;99485.95;1688271;83;22435;-74
2022/11/16 04:57:47;;;;;;;33.58;25.95;;;;;;;6.74;73.36;99485.83;1688509;83;21009;-74
2022/11/16 05:00:16;;;;;;;32.73;23.40;;;;;;;6.75;73.42;99490.95;1681123;83;21095;-74
2022/11/16 05:02:45;;;;;;;31.37;22.42;;;;;;;6.77;73.47;99488.23;1664569;83;21067;-74
2022/11/16 05:05:13;;;;;;;29.48;22.45;;;;;;;6.77;73.50;99482.51;1695122;83;21483;-74
2022/11/16 05:07:43;;;;;;;31.15;22.65;;;;;;;6.78;73.54;99485.97;1653085;84;21795;-74
2022/11/16 05:10:14;;;;;;;28.42;21.77;;;;;;;6.78;73.56;99476.78;1691971;83;21021;-74
2022/11/16 05:12:41;;;;;;;28.52;22.05;;;;;;;6.78;73.56;99480.72;1674755;83;21033;-74
2022/11/16 05:15:09;;;;;;;30.52;22.95;;;;;;;6.78;73.50;99472.36;1670007;83;21078;-74
2022/11/16 05:17:36;;;;;;;28.38;22.32;;;;;;;6.77;73.46;99469.86;1672078;83;21507;-75
2022/11/16 05:22:55;;;;;;;30.25;23.20;;;;;;;6.74;73.46;99473.54;1678020;83;20957;-75
2022/11/16 05:25:22;;;;;;;31.00;23.10;;;;;;;6.72;73.52;99472.83;1672214;83;20965;-75
2022/11/16 05:27:49;;;;;;;29.20;22.42;;;;;;;6.72;73.62;99475.45;1695613;83;21067;-75
2022/11/16 05:30:16;;;;;;;524.20;327.75;;;;;;;6.74;73.65;99477.95;1678734;83;21550;-74
2022/11/16 05:32:43;;;;;;;310.38;190.05;;;;;;;6.74;73.74;99476.16;1672986;83;22399;-74
2022/11/16 05:35:10;;;;;;;114.30;67.58;;;;;;;6.75;73.74;99476.52;1667016;83;21415;-74
2022/11/16 05:37:37;;;;;;;58.90;38.73;;;;;;;6.75;73.71;99468.64;1635001;86;21045;-74
2022/11/16 05:40:06;;;;;;;45.60;31.55;;;;;;;6.77;73.70;99466.77;1640227;86;20973;-74
2022/11/16 05:42:38;;;;;;;31.42;24.65;;;;;;;6.76;73.69;99462.47;1644384;86;21012;-75
2022/11/16 05:45:05;;;;;;;35.63;23.35;;;;;;;6.76;73.72;99453.28;1652014;86;21841;-75
2022/11/16 05:47:33;;;;;;;29.18;22.45;;;;;;;6.78;73.75;99455.78;1629844;86;21076;-74
2022/11/16 05:50:00;;;;;;;32.63;23.42;;;;;;;6.80;73.75;99455.18;1634230;86;20976;-74
2022/11/16 05:52:29;;;;;;;35.25;24.15;;;;;;;6.80;73.75;99444.20;1637086;86;21587;-74
2022/11/16 05:54:58;;;;;;;33.30;25.10;;;;;;;6.81;73.74;99448.49;1608634;86;21044;-74
2022/11/16 05:57:25;;;;;;;32.20;24.45;;;;;;;6.81;73.73;99445.87;1644996;86;21942;-74
2022/11/16 05:59:51;;;;;;;27.10;20.70;;;;;;;6.83;73.80;99435.25;1636283;86;21025;-75
2022/11/16 06:02:18;;;;;;;28.17;22.00;;;;;;;6.84;73.80;99427.24;1632090;86;21099;-75
2022/11/16 06:04:45;;;;;;;27.17;22.13;;;;;;;6.86;73.79;99430.61;1639269;86;21060;-75
2022/11/16 06:07:12;;;;;;;30.77;22.25;;;;;;;6.88;73.73;99435.25;1635511;86;20977;-75
2022/11/16 06:09:38;;;;;;;29.42;23.60;;;;;;;6.91;73.69;99437.27;1635202;86;21832;-75
2022/11/16 06:12:08;;;;;;;35.30;26.27;;;;;;;6.93;73.62;99434.04;1632338;86;21137;-75
2022/11/16 06:14:36;;;;;;;39.75;29.42;;;;;;;6.94;73.52;99442.27;1636821;86;21028;-75
2022/11/16 06:17:02;;;;;;;51.05;33.35;;;;;;;6.94;73.51;99441.79;1635045;86;20984;-74
2022/11/16 06:19:29;;;;;;;50.35;35.80;;;;;;;6.94;73.45;99441.79;1629604;86;21116;-74
2022/11/16 06:21:57;;;;;;;58.52;38.63;;;;;;;6.94;73.45;99443.09;1630020;86;22273;-75
2022/11/16 06:24:24;;;;;;;51.92;35.95;;;;;;;6.96;73.45;99443.84;1637354;86;21575;-75
2022/11/16 06:26:50;;;;;;;53.90;37.25;;;;;;;6.97;73.44;99448.61;1615527;86;22309;-75
2022/11/16 06:29:17;;;;;;;54.40;37.05;;;;;;;6.99;73.44;99445.37;1580471;88;21728;-75
2022/11/16 06:31:44;;;;;;;66.55;40.25;;;;;;;7.01;73.43;99443.45;1588125;89;21608;-75
2022/11/16 06:34:12;;;;;;;62.50;41.98;;;;;;;7.04;73.44;99441.89;1634918;86;22693;-75
2022/11/16 06:36:39;;;;;;;65.67;43.78;;;;;;;7.08;73.39;99445.96;1644865;85;20989;-75
2022/11/16 06:39:06;;;;;;;64.00;42.95;;;;;;;7.10;73.35;99456.69;1633174;86;21029;-75
2022/11/16 06:41:36;;;;;;;54.67;38.48;;;;;;;7.12;73.22;99456.56;1658214;84;20993;-75
2022/11/16 06:44:02;;;;;;;60.55;37.45;;;;;;;7.11;73.12;99452.27;1660129;86;21212;-75
2022/11/16 06:46:32;;;;;;;52.05;37.38;;;;;;;7.07;73.04;99447.75;1663481;84;21888;-75
2022/11/16 06:48:59;;;;;;;51.58;35.90;;;;;;;7.06;73.04;99443.94;1657684;84;21086;-75
2022/11/16 06:51:25;;;;;;;47.08;34.25;;;;;;;7.07;73.10;99436.42;1667205;84;21061;-75
2022/11/16 06:53:53;;;;;;;45.52;31.12;;;;;;;7.08;73.07;99434.98;1670625;84;20993;-75
2022/11/16 06:56:21;;;;;;;38.58;29.10;;;;;;;7.09;73.00;99428.77;1671634;84;21013;-75
2022/11/16 06:58:49;;;;;;;42.70;29.50;;;;;;;7.10;72.99;99430.91;1663586;84;22654;-75
2022/11/16 07:01:16;;;;;;;38.60;27.75;;;;;;;7.12;72.96;99440.81;1662667;84;20976;-75
2022/11/16 07:03:43;;;;;;;38.00;28.62;;;;;;;7.12;72.94;99431.62;1661408;84;21002;-75
2022/11/16 07:06:13;;;;;;;37.08;29.77;;;;;;;7.14;72.91;99433.19;1659714;84;21160;-75
2022/11/16 07:08:42;;;;;;;36.50;29.30;;;;;;;7.16;72.86;99435.20;1670611;84;21137;-76
2022/11/16 07:11:09;;;;;;;45.25;31.57;;;;;;;7.16;72.78;99428.64;1655798;84;21819;-75
2022/11/16 07:13:37;;;;;;;38.10;30.37;;;;;;;7.14;72.67;99426.62;1648007;84;21048;-76
2022/11/16 07:16:09;;;;;;;39.03;30.88;;;;;;;7.13;72.62;99424.09;1661878;84;21052;-76
2022/11/16 07:18:40;;;;;;;39.23;30.72;;;;;;;7.13;72.64;99416.21;1654894;84;21032;-76
2022/11/16 07:21:13;;;;;;;38.15;29.63;;;;;;;7.14;72.60;99408.69;1668855;84;20932;-75
2022/11/16 07:23:39;;;;;;;38.23;31.05;;;;;;;7.15;72.58;99410.39;1668407;84;22476;-76
2022/11/16 07:26:08;;;;;;;39.78;30.88;;;;;;;7.16;72.58;99408.95;1655068;84;21030;-75
2022/11/16 07:28:36;;;;;;;41.33;30.72;;;;;;;7.18;72.60;99399.14;1652354;85;20917;-75
2022/11/16 07:31:09;;;;;;;40.35;30.02;;;;;;;7.21;72.53;99403.78;1663160;84;21118;-74
2022/11/16 07:33:37;;;;;;;;;;;;;;;7.22;72.52;99406.28;1666642;84;21014;-74
2022/11/16 07:36:10;;;;;;;38.42;31.00;;;;;;;7.22;72.44;99404.97;1593466;86;22051;-74
2022/11/16 07:38:37;;;;;;;38.42;30.32;;;;;;;7.19;72.36;99402.60;1648428;86;21516;-74
2022/11/16 07:41:08;;;;;;;38.48;29.10;;;;;;;7.19;72.44;99401.29;1673769;84;21376;-74
2022/11/16 07:43:38;;;;;;;36.65;29.90;;;;;;;7.20;72.40;99400.81;1617229;86;21010;-74
2022/11/16 07:46:16;;;;;;;42.62;31.40;;;;;;;7.18;72.42;99393.06;1616126;86;21551;-74
2022/11/16 07:48:43;;;;;;;38.50;29.80;;;;;;;7.19;72.48;99394.72;1621499;86;21848;-74
2022/11/16 07:51:32;;;;;;;43.20;30.85;;;;;;;7.20;72.45;99391.14;1589906;86;22492;-74
2022/11/16 07:54:13;;;;;;;39.73;31.37;;;;;;;7.21;72.42;99389.34;1618222;85;21157;-74
2022/11/16 07:56:42;;;;;;;37.35;29.12;;;;;;;7.21;72.48;99390.66;1616931;87;21081;-75
2022/11/16 07:59:09;;;;;;;35.00;30.08;;;;;;;7.21;72.46;99391.97;1616690;86;21052;-75
2022/11/16 08:01:39;;;;;;;37.55;29.90;;;;;;;7.21;72.51;99388.86;1618272;86;22076;-75
2022/11/16 08:04:06;;;;;;;40.03;29.00;;;;;;;7.24;72.51;99389.95;1631004;86;21229;-75
2022/11/16 08:06:33;;;;;;;40.52;29.00;;;;;;;7.24;72.47;99391.70;1619421;86;21487;-74
2022/11/16 08:09:00;;;;;;;35.58;28.50;;;;;;;7.24;72.48;99386.01;1621035;85;21036;-75
2022/11/16 08:11:28;;;;;;;38.92;29.80;;;;;;;7.25;72.54;99375.85;1619472;86;21022;-73
2022/11/16 08:13:56;;;;;;;37.40;28.90;;;;;;;7.25;72.57;99367.97;1624661;86;21901;-75
2022/11/16 08:16:24;;;;;;;38.83;30.20;;;;;;;7.27;72.61;99368.67;1610611;86;21436;-75
2022/11/16 08:18:53;;;;;;;37.58;30.62;;;;;;;7.26;72.57;99364.87;1614876;86;21143;-75
2022/11/16 08:21:22;;;;;;;36.45;29.02;;;;;;;7.27;72.59;99367.84;1620625;86;21103;-75
2022/11/16 08:23:49;;;;;;;38.33;29.23;;;;;;;7.29;72.63;99367.23;1639764;87;21101;-75
2022/11/16 08:26:18;;;;;;;36.80;29.00;;;;;;;7.29;72.66;99361.98;1619252;86;21859;-75
2022/11/16 08:28:49;;;;;;;36.40;28.47;;;;;;;7.31;72.69;99363.52;1619797;86;21041;-75
2022/11/16 08:31:21;;;;;;;33.50;27.05;;;;;;;7.32;72.66;99368.28;1600199;87;21088;-75
2022/11/16 08:33:50;;;;;;;35.60;28.10;;;;;;;7.32;72.65;99359.09;1620001;86;21041;-75
2022/11/16 08:36:18;;;;;;;37.58;28.10;;;;;;;7.36;72.58;99360.52;1639317;85;21063;-75
2022/11/16 08:38:46;;;;;;;34.75;26.90;;;;;;;7.33;72.54;99355.02;1624745;86;21987;-75
2022/11/16 08:41:13;;;;;;;31.97;26.02;;;;;;;7.35;72.54;99357.55;1640010;86;20999;-75
2022/11/16 08:43:40;;;;;;;35.65;26.55;;;;;;;7.37;72.49;99356.94;1633278;86;20986;-75
2022/11/16 08:46:08;;;;;;;32.55;25.72;;;;;;;7.37;72.45;99359.08;1617833;86;21058;-75
2022/11/16 08:48:35;;;;;;;31.45;25.37;;;;;;;7.37;72.46;99354.31;1598233;88;21543;-75
2022/11/16 08:51:06;;;;;;;33.60;26.37;;;;;;;7.38;72.46;99352.03;1656198;84;21852;-75
2022/11/16 08:53:33;;;;;;;32.63;26.05;;;;;;;7.40;72.42;99352.25;1635366;84;20968;-75
2022/11/16 08:56:05;;;;;;;37.20;26.52;;;;;;;7.43;72.41;99354.65;1661460;84;21429;-75
2022/11/16 08:58:32;;;;;;;32.50;24.82;;;;;;;7.46;72.32;99358.33;1663908;84;21095;-75
2022/11/16 09:01:15;;;;;;;33.75;24.65;;;;;;;7.49;72.30;99355.08;1659132;84;20954;-76
2022/11/16 09:03:42;;;;;;;35.70;25.45;;;;;;;7.50;72.22;99352.32;1687192;84;21981;-75
2022/11/16 09:06:09;;;;;;;36.23;25.30;;;;;;;7.51;72.21;99350.53;1657218;84;21009;-75
2022/11/16 09:08:37;;;;;;;36.33;25.43;;;;;;;7.52;72.22;99350.88;1665306;84;21470;-75
2022/11/16 09:11:06;;;;;;;30.60;24.55;;;;;;;7.54;72.22;99341.09;1661915;84;20969;-75
2022/11/16 09:13:33;;;;;;;32.13;24.40;;;;;;;7.57;72.23;99341.66;1682082;84;21092;-75
2022/11/16 09:16:00;;;;;;;32.45;24.80;;;;;;;7.59;72.14;99332.33;1661281;84;22311;-75
2022/11/16 09:18:27;;;;;;;30.92;25.12;;;;;;;7.63;72.09;99331.13;1668542;83;21458;-76
2022/11/16 09:20:53;;;;;;;31.95;23.73;;;;;;;7.64;72.00;99329.69;1667670;83;21493;-75
2022/11/16 09:23:21;;;;;;;32.20;23.52;;;;;;;7.66;71.95;99333.02;1660561;83;21497;-75
2022/11/16 09:25:47;;;;;;;33.25;22.65;;;;;;;7.66;71.94;99330.38;1665257;84;21045;-75
2022/11/16 09:28:18;;;;;;;31.90;23.10;;;;;;;7.67;71.85;99327.27;1664595;84;21983;-79
2022/11/16 09:30:45;;;;;;;30.92;23.27;;;;;;;7.67;71.82;99325.95;1661958;83;20953;-76
2022/11/16 09:33:13;;;;;;;26.77;22.62;;;;;;;7.67;71.81;99322.02;1660547;83;21033;-78
2022/11/16 09:35:39;;;;;;;27.75;22.42;;;;;;;7.69;71.86;99318.77;1670164;83;21535;-72
2022/11/16 09:38:08;;;;;;;27.73;22.70;;;;;;;7.71;71.85;99318.16;1666592;83;21076;-75
2022/11/16 09:40:41;;;;;;;27.77;21.70;;;;;;;7.71;71.83;99313.73;1672422;83;22723;-75
2022/11/16 09:43:34;;;;;;;32.03;21.97;;;;;;;7.71;71.80;99312.41;1666410;83;21786;-76
2022/11/16 09:46:16;;;;;;;26.45;21.65;;;;;;;7.72;71.77;99314.56;1663963;84;21083;-72
2022/11/16 09:48:43;;;;;;;28.62;20.92;;;;;;;7.72;71.71;99313.25;1676562;84;21036;-75
2022/11/16 09:51:13;;;;;;;27.00;21.35;;;;;;;7.71;71.78;99312.90;1663581;83;21096;-74
2022/11/16 09:53:59;;;;;;;26.07;20.68;;;;;;;7.70;71.79;99316.49;1671540;84;21940;-78
2022/11/16 09:56:28;;;;;;;31.20;21.68;;;;;;;7.70;71.77;99309.92;1670337;83;20953;-74
2022/11/16 09:59:04;;;;;;;30.90;21.65;;;;;;;7.71;71.87;99309.79;1667505;84;22142;-76
2022/11/16 10:01:53;;;;;;;29.75;22.00;;;;;;;7.73;71.85;99304.43;1681268;84;21033;-76
2022/11/16 10:04:35;;;;;;;26.30;21.10;;;;;;;7.74;71.88;99310.86;1667357;84;21044;-71
2022/11/16 10:07:09;;;;;;;25.75;20.62;;;;;;;7.75;71.80;99312.52;1677286;84;21989;-74
2022/11/16 10:09:35;;;;;;;28.17;21.10;;;;;;;7.74;71.80;99306.92;1667230;84;21115;-69
2022/11/16 10:12:10;;;;;;;26.62;19.67;;;;;;;7.76;71.79;99310.73;1678612;84;21044;-74
2022/11/16 10:15:15;;;;;;;25.43;19.52;;;;;;;7.77;71.75;99306.30;1653870;83;21036;-73
2022/11/16 10:18:18;;;;;;;23.85;18.55;;;;;;;7.78;71.62;99314.05;1679769;83;21490;-71
2022/11/16 10:21:14;;;;;;;20.72;17.40;;;;;;;7.75;71.49;99306.44;1673461;84;21069;-70
2022/11/16 10:23:49;;;;;;;22.07;16.52;;;;;;;7.72;71.46;99306.67;1655424;84;21546;-72
2022/11/16 10:26:58;;;;;;;21.37;16.45;;;;;;;7.70;71.43;99298.09;1669735;83;21028;-73
2022/11/16 10:29:45;;;;;;;19.60;15.58;;;;;;;7.69;71.40;99296.43;1676501;83;21089;-73
2022/11/16 10:32:21;;;;;;;21.95;16.40;;;;;;;7.68;71.43;99296.91;1681493;83;21055;-74
2022/11/16 10:35:17;;;;;;;22.70;17.30;;;;;;;7.67;71.36;99290.48;1679101;83;22417;-74
2022/11/16 10:37:49;;;;;;;21.10;17.23;;;;;;;7.63;71.29;99283.34;1664938;84;21519;-73
2022/11/16 10:40:27;;;;;;;21.82;17.35;;;;;;;7.63;71.27;99286.45;1660720;84;21076;-74
2022/11/16 10:43:03;;;;;;;23.70;18.00;;;;;;;7.64;71.25;99284.18;1667664;84;21120;-74
2022/11/16 10:45:56;;;;;;;23.40;18.87;;;;;;;7.62;71.17;99279.51;1670704;84;21029;-71
2022/11/16 10:48:51;;;;;;;23.98;18.45;;;;;;;7.64;71.19;99281.55;1661220;84;22044;-71
2022/11/16 10:51:18;;;;;;;24.00;19.07;;;;;;;7.66;71.19;99273.88;1642318;85;21076;-71
2022/11/16 10:53:44;;;;;;;24.10;19.10;;;;;;;7.67;71.18;99263.72;1673473;83;21088;-70
2022/11/16 10:56:31;;;;;;;24.82;19.48;;;;;;;7.69;71.11;99262.27;1658985;84;21107;-76
2022/11/16 10:59:01;;;;;;;26.10;20.05;;;;;;;7.69;71.10;99261.78;1674413;83;20971;-74
2022/11/16 11:01:48;;;;;;;24.87;19.77;;;;;;;7.71;71.10;99263.80;1679683;84;21847;-73
2022/11/16 11:04:26;;;;;;;26.87;20.05;;;;;;;7.71;71.05;99265.59;1673803;84;20980;-70
2022/11/16 11:06:58;;;;;;;27.10;20.12;;;;;;;7.72;71.02;99263.31;1659683;84;21032;-71
2022/11/16 11:09:31;;;;;;;27.20;20.60;;;;;;;7.73;71.05;99265.00;1666507;84;21064;-74
2022/11/16 11:15:21;;;;;;;30.95;20.95;;;;;;;7.78;71.10;99269.37;1666414;84;21771;-73
2022/11/16 11:17:50;;;;;;;28.00;22.20;;;;;;;7.79;71.09;99267.57;1662301;84;21051;-80
2022/11/16 11:20:21;;;;;;;30.62;21.82;;;;;;;7.78;71.12;99264.11;1647342;85;21080;-77
2022/11/16 11:22:57;;;;;;;33.98;23.57;;;;;;;7.78;71.16;99265.91;1650503;84;21143;-76
2022/11/16 11:25:28;;;;;;;29.72;22.67;;;;;;;7.78;71.26;99265.42;1656570;84;21448;-72
2022/11/16 11:28:17;;;;;;;32.85;25.17;;;;;;;7.80;71.34;99260.86;1657361;84;22517;-72
2022/11/16 11:31:08;;;;;;;35.78;26.45;;;;;;;7.81;71.37;99259.90;1649400;84;21840;-70
2022/11/16 11:33:56;;;;;;;37.17;26.82;;;;;;;7.83;71.49;99253.22;1670949;84;21310;-71
2022/11/16 11:36:39;;;;;;;32.83;25.25;;;;;;;7.85;71.62;99255.23;1664465;84;21556;-70
2022/11/16 11:39:22;;;;;;;41.33;27.45;;;;;;;7.86;71.83;99256.41;1672454;84;20980;-80
2022/11/16 11:42:17;;;;;;;34.00;27.10;;;;;;;7.84;71.98;99247.00;1663979;84;22597;-68
2022/11/16 11:44:53;;;;;;;36.08;28.55;;;;;;;7.84;72.35;99251.77;1648860;84;21063;-67
2022/11/16 11:48:00;;;;;;;39.90;30.27;;;;;;;7.85;72.53;99249.48;1666711;84;21065;-75
2022/11/16 11:50:39;;;;;;;40.10;29.35;;;;;;;7.87;72.65;99248.03;1656512;83;21176;-71
2022/11/16 11:53:40;;;;;;;38.13;30.32;;;;;;;7.89;72.81;99239.52;1680734;84;21034;-73
2022/11/16 11:56:07;;;;;;;36.85;29.55;;;;;;;7.88;72.90;99236.55;1663764;84;22690;-70
2022/11/16 11:58:37;;;;;;;38.55;29.45;;;;;;;7.86;72.95;99238.48;1675331;84;20985;-69
2022/11/16 12:01:32;;;;;;;37.30;30.60;;;;;;;7.84;73.04;99236.48;1675360;84;21112;-69
2022/11/16 12:04:39;;;;;;;43.13;31.17;;;;;;;7.81;73.13;99235.41;1653547;84;21017;-69
2022/11/16 12:07:31;;;;;;;42.90;31.62;;;;;;;7.79;73.26;99237.34;1695421;84;21076;-69
2022/11/16 12:10:30;;;;;;;41.75;31.17;;;;;;;7.72;73.39;99225.20;1659424;84;21725;-70
2022/11/16 12:13:14;;;;;;;43.17;31.27;;;;;;;7.69;73.61;99226.78;1638139;85;21029;-68
2022/11/16 12:16:08;;;;;;;;;;;;;;;7.66;73.79;99233.14;1653662;87;20973;-69
2022/11/16 12:18:51;;;;;;;42.85;31.68;;;;;;;7.66;73.94;99229.20;1641557;86;20494;-69
2022/11/16 12:21:35;;;;;;;43.45;32.08;;;;;;;7.64;74.09;99224.56;1636398;86;21520;-70
2022/11/16 12:24:20;;;;;;;43.83;32.98;;;;;;;7.63;74.25;99224.22;1651985;84;21987;-68
2022/11/16 12:27:02;;;;;;;44.25;32.25;;;;;;;7.61;74.39;99222.66;1656435;84;21513;-69
2022/11/16 12:29:49;;;;;;;43.80;32.60;;;;;;;7.61;74.54;99217.41;1669980;84;21480;-75
2022/11/16 12:32:44;;;;;;;43.63;32.85;;;;;;;7.59;74.64;99221.48;1650794;84;21052;-69
2022/11/16 12:35:47;;;;;;;49.70;37.60;;;;;;;7.59;74.80;99224.11;1650978;84;21405;-69
2022/11/16 12:38:26;;;;;;;48.13;37.28;;;;;;;7.59;74.99;99224.59;1670053;84;21877;-69